createdAt,value
2018-05-24T00:01:30.399Z,100.00
2018-05-24T00:03:56.885Z,100.00
2018-05-24T00:06:23.967Z,100.00
2018-05-24T00:08:50.287Z,100.00
2018-05-24T00:11:16.738Z,100.00
2018-05-24T00:13:43.101Z,100.00
2018-05-24T00:16:10.219Z,100.00
2018-05-24T00:18:36.526Z,100.00
2018-05-24T00:21:03.329Z,100.00
2018-05-24T00:23:30.848Z,100.00
2018-05-24T00:25:57.947Z,100.00
2018-05-24T00:28:24.326Z,100.00
2018-05-24T00:30:50.730Z,100.00
2018-05-24T00:33:17.115Z,100.00
2018-05-24T00:35:43.396Z,100.00
2018-05-24T00:38:09.742Z,100.00
2018-05-24T00:40:36.141Z,100.00
2018-05-24T00:43:02.575Z,100.00
2018-05-24T00:45:28.930Z,100.00
2018-05-24T00:47:55.342Z,100.00
2018-05-24T00:50:21.672Z,100.00
2018-05-24T00:52:48.005Z,100.00
2018-05-24T00:55:33.284Z,100.00
2018-05-24T00:57:59.605Z,100.00
2018-05-24T01:00:26.005Z,100.00
2018-05-24T01:02:53.152Z,100.00
2018-05-24T01:05:20.261Z,100.00
2018-05-24T01:07:46.668Z,100.00
2018-05-24T01:10:13.102Z,100.00
2018-05-24T01:12:39.431Z,100.00
2018-05-24T01:15:06.268Z,100.00
2018-05-24T01:17:32.604Z,100.00
2018-05-24T01:19:58.976Z,100.00
2018-05-24T01:22:25.306Z,100.00
2018-05-24T01:24:51.694Z,100.00
2018-05-24T01:27:18.018Z,100.00
2018-05-24T01:29:44.354Z,100.00
2018-05-24T01:32:10.658Z,100.00
2018-05-24T01:34:37.584Z,100.00
2018-05-24T01:37:23.207Z,100.00
2018-05-24T01:39:49.542Z,100.00
2018-05-24T01:42:15.851Z,100.00
2018-05-24T01:44:42.180Z,100.00
2018-05-24T01:47:08.525Z,100.00
2018-05-24T01:49:34.914Z,100.00
2018-05-24T01:52:01.986Z,100.00
2018-05-24T01:54:28.332Z,100.00
2018-05-24T01:56:54.709Z,100.00
2018-05-24T01:59:21.090Z,100.00
2018-05-24T02:01:47.414Z,100.00
2018-05-24T02:04:13.737Z,100.00
2018-05-24T02:06:40.226Z,100.00
2018-05-24T02:09:07.139Z,100.00
2018-05-24T02:11:33.541Z,100.00
2018-05-24T02:13:59.858Z,100.00
2018-05-24T02:16:26.296Z,100.00
2018-05-24T02:18:52.653Z,100.00
2018-05-24T02:21:19.029Z,100.00
2018-05-24T02:23:45.371Z,100.00
2018-05-24T02:26:12.486Z,100.00
2018-05-24T02:28:38.830Z,100.00
2018-05-24T02:31:05.133Z,100.00
2018-05-24T02:33:31.547Z,100.00
2018-05-24T02:35:57.987Z,100.00
2018-05-24T02:38:24.200Z,100.00
2018-05-24T02:40:50.507Z,100.00
2018-05-24T02:43:16.940Z,100.00
2018-05-24T02:45:43.370Z,100.00
2018-05-24T02:48:10.450Z,100.00
2018-05-24T02:50:36.787Z,100.00
2018-05-24T02:53:03.114Z,100.00
2018-05-24T02:55:29.459Z,100.00
2018-05-24T02:57:55.923Z,100.00
2018-05-24T03:00:22.221Z,100.00
2018-05-24T03:02:48.544Z,100.00
2018-05-24T03:05:14.831Z,100.00
2018-05-24T03:07:41.195Z,100.00
2018-05-24T03:10:07.517Z,100.00
2018-05-24T03:12:33.986Z,100.00
2018-05-24T03:15:00.309Z,100.00
2018-05-24T03:17:26.703Z,100.00
2018-05-24T03:19:53.033Z,100.00
2018-05-24T03:22:19.429Z,100.00
2018-05-24T03:24:46.486Z,100.00
2018-05-24T03:27:13.745Z,100.00
2018-05-24T03:29:40.085Z,100.00
2018-05-24T03:32:06.404Z,100.00
2018-05-24T03:34:32.829Z,100.00
2018-05-24T03:36:59.173Z,100.00
2018-05-24T03:39:25.515Z,100.00
2018-05-24T03:41:51.814Z,100.00
2018-05-24T03:44:18.165Z,100.00
2018-05-24T03:46:44.519Z,100.00
2018-05-24T03:49:10.818Z,100.00
2018-05-24T03:51:37.170Z,100.00
2018-05-24T03:54:03.514Z,100.00
2018-05-24T03:56:29.919Z,100.00
2018-05-24T04:02:31.376Z,100.00
2018-05-24T04:04:57.786Z,100.00
2018-05-24T04:07:24.886Z,100.00
2018-05-24T04:09:51.352Z,100.00
2018-05-24T04:12:17.679Z,100.00
2018-05-24T04:14:43.996Z,100.00
2018-05-24T04:17:10.346Z,100.00
2018-05-24T04:19:36.833Z,100.00
2018-05-24T04:22:03.386Z,100.00
2018-05-24T04:24:29.735Z,100.00
2018-05-24T04:26:56.239Z,100.00
2018-05-24T04:29:23.287Z,100.00
2018-05-24T04:31:50.222Z,100.00
2018-05-24T04:34:16.820Z,100.00
2018-05-24T04:36:43.223Z,100.00
2018-05-24T04:39:09.619Z,100.00
2018-05-24T04:41:36.051Z,100.00
2018-05-24T04:44:02.442Z,100.00
2018-05-24T04:46:29.543Z,100.00
2018-05-24T04:48:55.907Z,100.00
2018-05-24T04:51:22.264Z,100.00
2018-05-24T04:53:48.628Z,100.00
2018-05-24T04:56:15.008Z,100.00
2018-05-24T04:58:42.090Z,100.00
2018-05-24T05:01:08.450Z,100.00
2018-05-24T05:03:34.914Z,100.00
2018-05-24T05:06:01.987Z,100.00
2018-05-24T05:08:28.369Z,100.00
2018-05-24T05:10:54.737Z,100.00
2018-05-24T05:13:21.921Z,100.00
2018-05-24T05:15:48.263Z,100.00
2018-05-24T05:18:14.709Z,100.00
2018-05-24T05:20:41.122Z,100.00
2018-05-24T05:23:07.581Z,100.00
2018-05-24T05:25:34.671Z,100.00
2018-05-24T05:28:00.977Z,100.00
2018-05-24T05:30:28.183Z,100.00
2018-05-24T05:32:55.134Z,100.00
2018-05-24T05:35:25.668Z,100.00
2018-05-24T05:37:52.023Z,100.00
2018-05-24T05:40:18.664Z,100.00
2018-05-24T05:42:45.765Z,100.00
2018-05-24T05:45:12.080Z,100.00
2018-05-24T05:47:38.464Z,100.00
2018-05-24T05:50:04.877Z,99.96
2018-05-24T05:52:31.222Z,100.00
2018-05-24T05:54:57.608Z,100.00
2018-05-24T05:57:24.040Z,100.00
2018-05-24T05:59:50.450Z,100.00
2018-05-24T06:02:16.966Z,100.00
2018-05-24T06:04:43.410Z,99.16
2018-05-24T06:07:09.786Z,99.66
2018-05-24T06:09:36.251Z,100.00
2018-05-24T06:12:02.629Z,99.44
2018-05-24T06:14:29.012Z,99.63
2018-05-24T06:16:55.450Z,99.43
2018-05-24T06:19:22.842Z,99.37
2018-05-24T06:21:49.290Z,97.97
2018-05-24T06:24:15.609Z,97.89
2018-05-24T06:26:42.095Z,97.03
2018-05-24T06:29:09.192Z,97.15
2018-05-24T06:31:35.535Z,97.79
2018-05-24T06:34:02.026Z,97.78
2018-05-24T06:36:28.383Z,94.80
2018-05-24T06:38:54.734Z,91.72
2018-05-24T06:41:21.068Z,91.60
2018-05-24T06:43:47.431Z,94.44
2018-05-24T06:46:13.791Z,95.84
2018-05-24T06:48:40.264Z,96.75
2018-05-24T06:51:06.743Z,96.60
2018-05-24T06:53:33.182Z,96.52
2018-05-24T06:55:59.558Z,94.83
2018-05-24T06:58:30.827Z,94.34
2018-05-24T07:00:57.997Z,93.44
2018-05-24T07:03:25.491Z,93.53
2018-05-24T07:05:51.869Z,94.80
2018-05-24T07:08:18.983Z,94.63
2018-05-24T07:10:45.507Z,91.84
2018-05-24T07:13:15.993Z,93.41
2018-05-24T07:15:43.084Z,92.41
2018-05-24T07:18:09.447Z,92.04
2018-05-24T07:20:35.835Z,92.67
2018-05-24T07:23:02.273Z,92.40
2018-05-24T07:25:29.934Z,90.01
2018-05-24T07:27:56.544Z,89.68
2018-05-24T07:30:22.880Z,91.70
2018-05-24T07:32:49.438Z,91.64
2018-05-24T07:35:16.590Z,91.37
2018-05-24T07:37:43.041Z,91.13
2018-05-24T07:40:09.445Z,90.14
2018-05-24T07:42:35.838Z,90.35
2018-05-24T07:45:02.272Z,89.02
2018-05-24T07:47:28.563Z,87.70
2018-05-24T07:49:54.926Z,86.64
2018-05-24T07:52:22.157Z,88.75
2018-05-24T07:54:48.878Z,89.81
2018-05-24T07:57:15.231Z,89.58
2018-05-24T07:59:42.380Z,89.63
2018-05-24T08:02:09.505Z,89.67
2018-05-24T08:04:35.992Z,90.61
2018-05-24T08:07:02.357Z,87.75
2018-05-24T08:09:28.774Z,88.20
2018-05-24T08:11:56.045Z,89.47
2018-05-24T08:14:22.472Z,89.07
2018-05-24T08:16:48.944Z,88.67
2018-05-24T08:19:16.049Z,79.06
2018-05-24T08:21:42.458Z,83.19
2018-05-24T08:24:09.384Z,84.12
2018-05-24T08:26:35.778Z,80.66
2018-05-24T08:29:02.257Z,79.95
2018-05-24T08:31:28.577Z,83.42
2018-05-24T08:33:55.062Z,85.22
2018-05-24T08:36:21.578Z,82.67
2018-05-24T08:38:47.962Z,79.18
2018-05-24T08:41:15.247Z,78.38
2018-05-24T08:43:41.673Z,77.28
2018-05-24T08:46:08.121Z,75.26
2018-05-24T08:48:34.800Z,75.60
2018-05-24T08:51:01.271Z,78.13
2018-05-24T08:53:27.690Z,73.59
2018-05-24T08:55:54.845Z,71.56
2018-05-24T08:58:21.599Z,69.47
2018-05-24T09:00:48.033Z,67.43
2018-05-24T09:03:14.365Z,68.44
2018-05-24T09:05:40.763Z,68.92
2018-05-24T09:08:07.913Z,68.07
2018-05-24T09:10:35.147Z,67.10
2018-05-24T09:13:02.340Z,67.81
2018-05-24T09:15:28.794Z,68.34
2018-05-24T09:17:55.313Z,63.98
2018-05-24T09:20:21.621Z,66.37
2018-05-24T09:22:48.103Z,62.32
2018-05-24T09:25:14.605Z,65.68
2018-05-24T09:27:40.940Z,63.51
2018-05-24T09:30:07.274Z,67.36
2018-05-24T09:32:33.630Z,68.71
2018-05-24T09:35:00.126Z,63.61
2018-05-24T09:37:26.471Z,68.14
2018-05-24T09:39:52.994Z,68.96
2018-05-24T09:42:19.414Z,67.13
2018-05-24T09:44:45.810Z,65.29
2018-05-24T09:47:12.161Z,64.46
2018-05-24T09:49:39.295Z,65.25
2018-05-24T09:52:06.410Z,66.57
2018-05-24T09:54:32.884Z,68.80
2018-05-24T09:57:00.350Z,67.33
2018-05-24T09:59:27.424Z,67.57
2018-05-24T10:01:53.859Z,68.72
2018-05-24T10:04:20.167Z,66.90
2018-05-24T10:06:46.567Z,66.77
2018-05-24T10:09:13.031Z,65.94
2018-05-24T10:11:39.547Z,63.73
2018-05-24T10:14:06.624Z,63.81
2018-05-24T10:16:33.201Z,63.22
2018-05-24T10:19:01.021Z,63.20
2018-05-24T10:21:31.278Z,63.18
2018-05-24T10:23:57.719Z,63.96
2018-05-24T10:26:24.031Z,63.83
2018-05-24T10:28:52.507Z,63.50
2018-05-24T10:31:23.117Z,64.48
2018-05-24T10:33:49.601Z,62.75
2018-05-24T10:36:16.035Z,62.41
2018-05-24T10:38:43.089Z,62.46
2018-05-24T10:41:11.151Z,63.14
2018-05-24T10:43:39.644Z,61.75
2018-05-24T10:46:08.261Z,62.94
2018-05-24T10:48:34.742Z,60.88
2018-05-24T10:51:05.761Z,61.11
2018-05-24T10:53:32.097Z,59.43
2018-05-24T10:55:58.424Z,60.89
2018-05-24T10:58:24.855Z,61.76
2018-05-24T11:00:52.440Z,62.13
2018-05-24T11:03:18.938Z,64.19
2018-05-24T11:05:54.436Z,63.62
2018-05-24T11:11:01.058Z,63.80
2018-05-24T11:13:27.523Z,62.89
2018-05-24T11:15:53.884Z,63.18
2018-05-24T11:18:21.416Z,62.70
2018-05-24T11:20:47.762Z,62.25
2018-05-24T11:23:28.864Z,63.57
2018-05-24T11:28:47.627Z,64.14
2018-05-24T11:31:17.067Z,61.08
2018-05-24T11:33:43.723Z,59.11
2018-05-24T11:36:17.075Z,58.40
2018-05-24T11:38:46.520Z,57.63
2018-05-24T11:41:12.945Z,59.74
2018-05-24T11:43:43.564Z,58.33
2018-05-24T11:46:10.088Z,57.14
2018-05-24T11:48:36.432Z,57.75
2018-05-24T11:51:11.644Z,57.84
2018-05-24T11:53:38.884Z,57.42
2018-05-24T11:56:06.066Z,58.83
2018-05-24T11:58:32.540Z,56.64
2018-05-24T12:01:00.647Z,57.49
2018-05-24T12:03:27.085Z,58.93
2018-05-24T12:05:53.539Z,57.84
2018-05-24T12:08:19.866Z,59.62
2018-05-24T12:10:46.291Z,59.65
2018-05-24T12:13:12.724Z,59.27
2018-05-24T12:15:39.047Z,56.01
2018-05-24T12:18:05.493Z,56.70
2018-05-24T12:20:31.908Z,57.27
2018-05-24T12:22:58.302Z,58.04
2018-05-24T12:25:24.679Z,55.80
2018-05-24T12:27:51.721Z,52.49
2018-05-24T12:30:19.012Z,52.31
2018-05-24T12:32:45.487Z,53.01
2018-05-24T12:35:12.471Z,55.61
2018-05-24T12:37:38.894Z,53.54
2018-05-24T12:40:05.298Z,52.88
2018-05-24T12:42:31.796Z,53.42
2018-05-24T12:44:58.293Z,52.07
2018-05-24T12:47:24.628Z,52.00
2018-05-24T12:49:51.195Z,53.77
2018-05-24T12:52:18.298Z,53.13
2018-05-24T12:54:44.645Z,50.24
2018-05-24T12:57:11.076Z,50.49
2018-05-24T12:59:37.382Z,52.02
2018-05-24T13:02:03.896Z,51.35
2018-05-24T13:04:30.783Z,51.73
2018-05-24T13:06:57.139Z,51.37
2018-05-24T13:09:23.907Z,52.16
2018-05-24T13:11:50.330Z,50.76
2018-05-24T13:14:16.640Z,49.43
2018-05-24T13:16:43.725Z,48.66
2018-05-24T13:19:10.132Z,50.55
2018-05-24T13:21:36.535Z,49.06
2018-05-24T13:24:03.828Z,50.35
2018-05-24T13:26:30.170Z,50.03
2018-05-24T13:28:57.026Z,48.07
2018-05-24T13:31:23.616Z,47.46
2018-05-24T13:33:50.807Z,48.95
2018-05-24T13:36:17.600Z,50.26
2018-05-24T13:38:44.060Z,49.93
2018-05-24T13:41:10.475Z,48.74
2018-05-24T13:43:37.606Z,48.77
2018-05-24T13:46:03.992Z,48.17
2018-05-24T13:48:30.334Z,48.21
2018-05-24T13:50:56.735Z,49.13
2018-05-24T13:53:23.274Z,49.20
2018-05-24T13:55:49.750Z,50.09
2018-05-24T13:58:16.050Z,49.88
2018-05-24T14:00:42.458Z,51.41
2018-05-24T14:03:08.852Z,51.32
2018-05-24T14:05:35.499Z,50.91
2018-05-24T14:08:02.698Z,51.80
2018-05-24T14:10:29.894Z,53.75
2018-05-24T14:12:56.435Z,53.96
2018-05-24T14:15:23.138Z,54.76
2018-05-24T14:17:49.472Z,56.15
2018-05-24T14:20:15.841Z,55.51
2018-05-24T14:22:42.211Z,56.25
2018-05-24T14:25:08.603Z,56.21
2018-05-24T14:27:35.015Z,56.05
2018-05-24T14:30:02.132Z,56.58
2018-05-24T14:32:28.540Z,58.05
2018-05-24T14:34:54.976Z,59.68
2018-05-24T14:37:21.606Z,59.37
2018-05-24T14:39:47.916Z,58.48
2018-05-24T14:42:14.409Z,57.69
2018-05-24T14:44:41.075Z,58.12
2018-05-24T14:47:08.170Z,58.76
2018-05-24T14:49:34.955Z,58.79
2018-05-24T14:52:01.341Z,58.49
2018-05-24T14:54:27.765Z,59.75
2018-05-24T14:56:54.169Z,59.25
2018-05-24T14:59:20.632Z,58.91
2018-05-24T15:01:47.221Z,59.43
2018-05-24T15:04:14.346Z,60.30
2018-05-24T15:06:40.806Z,60.01
2018-05-24T15:09:08.071Z,59.99
2018-05-24T15:11:34.668Z,62.12
2018-05-24T15:14:01.169Z,61.83
2018-05-24T15:16:27.573Z,63.07
2018-05-24T15:18:53.938Z,63.73
2018-05-24T15:21:20.980Z,63.61
2018-05-24T15:23:47.306Z,62.88
2018-05-24T15:26:13.705Z,61.88
2018-05-24T15:28:40.079Z,61.90
2018-05-24T15:31:07.471Z,62.15
2018-05-24T15:33:34.769Z,62.15
2018-05-24T15:36:01.317Z,60.81
2018-05-24T15:38:27.819Z,61.25
2018-05-24T15:40:54.209Z,60.58
2018-05-24T15:43:20.567Z,60.36
2018-05-24T15:45:47.639Z,59.21
2018-05-24T15:48:13.947Z,59.89
2018-05-24T15:50:41.174Z,58.83
2018-05-24T15:53:07.511Z,58.66
2018-05-24T15:55:34.623Z,58.87
2018-05-24T15:58:01.051Z,57.56
2018-05-24T16:00:27.551Z,59.20
2018-05-24T16:02:54.108Z,58.96
2018-05-24T16:05:20.444Z,58.39
2018-05-24T16:07:46.962Z,60.04
2018-05-24T16:10:13.395Z,60.79
2018-05-24T16:12:45.487Z,58.11
2018-05-24T16:15:11.946Z,60.56
2018-05-24T16:17:38.329Z,59.15
2018-05-24T16:20:04.754Z,59.48
2018-05-24T16:22:31.113Z,60.46
2018-05-24T16:24:57.501Z,59.66
2018-05-24T16:27:23.954Z,59.89
2018-05-24T16:29:50.379Z,59.56
2018-05-24T16:32:16.726Z,61.61
2018-05-24T16:34:43.171Z,61.60
2018-05-24T16:37:09.523Z,62.52
2018-05-24T16:39:35.896Z,60.47
2018-05-24T16:42:02.261Z,61.44
2018-05-24T16:44:28.655Z,60.22
2018-05-24T16:46:55.082Z,61.37
2018-05-24T16:49:21.945Z,62.10
2018-05-24T16:51:48.731Z,64.06
2018-05-24T16:54:15.210Z,64.32
2018-05-24T16:56:41.547Z,65.15
2018-05-24T16:59:08.301Z,65.96
2018-05-24T17:01:34.623Z,65.99
2018-05-24T17:04:01.045Z,64.98
2018-05-24T17:06:27.578Z,64.84
2018-05-24T17:08:53.999Z,65.26
2018-05-24T17:11:20.418Z,66.07
2018-05-24T17:13:46.796Z,66.37
2018-05-24T17:16:13.198Z,65.90
2018-05-24T17:18:39.852Z,66.38
2018-05-24T17:21:06.354Z,65.56
2018-05-24T17:23:32.841Z,66.63
2018-05-24T17:25:59.539Z,67.32
2018-05-24T17:28:26.734Z,67.42
2018-05-24T17:30:53.084Z,68.28
2018-05-24T17:33:20.274Z,68.12
2018-05-24T17:35:46.791Z,68.03
2018-05-24T17:38:13.156Z,68.00
2018-05-24T17:40:39.593Z,67.90
2018-05-24T17:43:06.067Z,68.13
2018-05-24T17:45:33.224Z,68.61
2018-05-24T17:48:00.421Z,68.68
2018-05-24T17:50:26.852Z,68.79
2018-05-24T17:52:53.517Z,69.53
2018-05-24T17:55:24.324Z,68.83
2018-05-24T17:57:50.729Z,69.02
2018-05-24T18:00:17.389Z,69.27
2018-05-24T18:02:43.965Z,69.52
2018-05-24T18:05:10.416Z,69.15
2018-05-24T18:07:36.926Z,70.02
2018-05-24T18:10:03.518Z,70.46
2018-05-24T18:12:29.940Z,70.61
2018-05-24T18:14:56.372Z,71.34
2018-05-24T18:17:23.617Z,71.48
2018-05-24T18:19:50.077Z,71.46
2018-05-24T18:22:16.758Z,72.30
2018-05-24T18:24:44.104Z,72.04
2018-05-24T18:27:11.497Z,72.31
2018-05-24T18:29:37.970Z,72.84
2018-05-24T18:32:04.469Z,73.49
2018-05-24T18:34:31.132Z,74.49
2018-05-24T18:36:57.803Z,75.61
2018-05-24T18:39:24.350Z,77.27
2018-05-24T18:41:50.746Z,78.15
2018-05-24T18:44:17.198Z,79.66
2018-05-24T18:46:44.754Z,78.92
2018-05-24T18:49:12.027Z,78.77
2018-05-24T18:51:38.955Z,78.37
2018-05-24T18:54:05.532Z,78.75
2018-05-24T18:56:31.950Z,78.43
2018-05-24T18:58:58.568Z,79.20
2018-05-24T19:01:25.022Z,80.04
2018-05-24T19:03:51.473Z,79.78
2018-05-24T19:06:17.958Z,79.69
2018-05-24T19:08:44.484Z,81.33
2018-05-24T19:11:11.670Z,82.07
2018-05-24T19:13:38.082Z,81.36
2018-05-24T19:16:04.548Z,80.80
2018-05-24T19:18:31.022Z,81.51
2018-05-24T19:20:57.529Z,81.29
2018-05-24T19:23:23.932Z,81.51
2018-05-24T19:25:50.404Z,82.16
2018-05-24T19:28:16.883Z,82.63
2018-05-24T19:30:43.612Z,83.44
2018-05-24T19:33:10.939Z,83.76
2018-05-24T19:35:38.238Z,83.50
2018-05-24T19:38:05.458Z,84.28
2018-05-24T19:40:32.579Z,84.51
2018-05-24T19:42:58.983Z,84.88
2018-05-24T19:45:25.427Z,83.90
2018-05-24T19:47:51.940Z,83.89
2018-05-24T19:50:18.427Z,84.21
2018-05-24T19:52:44.899Z,84.93
2018-05-24T19:55:11.420Z,85.14
2018-05-24T19:57:37.858Z,84.47
2018-05-24T20:00:04.420Z,84.69
2018-05-24T20:02:30.851Z,86.02
2018-05-24T20:04:57.376Z,86.27
2018-05-24T20:07:23.927Z,85.77
2018-05-24T20:09:50.500Z,85.23
2018-05-24T20:12:17.685Z,85.97
2018-05-24T20:14:44.131Z,86.35
2018-05-24T20:17:10.736Z,85.72
2018-05-24T20:19:37.226Z,82.62
2018-05-24T20:22:03.751Z,83.92
2018-05-24T20:24:30.291Z,80.79
2018-05-24T20:26:56.677Z,78.83
2018-05-24T20:29:23.102Z,78.34
2018-05-24T20:31:49.498Z,79.05
2018-05-24T20:34:15.902Z,78.02
2018-05-24T20:36:42.301Z,78.15
2018-05-24T20:39:08.826Z,77.49
2018-05-24T20:41:35.209Z,77.44
2018-05-24T20:44:01.567Z,78.29
2018-05-24T20:46:28.057Z,77.79
2018-05-24T20:48:54.561Z,78.16
2018-05-24T20:51:20.937Z,78.63
2018-05-24T20:53:47.356Z,79.35
2018-05-24T20:56:13.738Z,79.76
2018-05-24T20:58:40.186Z,80.29
2018-05-24T21:01:08.111Z,82.34
2018-05-24T21:03:34.488Z,81.95
2018-05-24T21:06:00.920Z,81.94
2018-05-24T21:08:27.279Z,82.36
2018-05-24T21:10:53.644Z,83.70
2018-05-24T21:13:20.053Z,81.50
2018-05-24T21:15:46.437Z,81.00
2018-05-24T21:18:14.732Z,80.71
2018-05-24T21:20:41.075Z,78.74
2018-05-24T21:23:07.689Z,78.97
2018-05-24T21:25:38.446Z,77.75
2018-05-24T21:28:04.987Z,77.16
2018-05-24T21:30:33.145Z,75.83
2018-05-24T21:32:59.689Z,75.74
2018-05-24T21:35:26.036Z,75.88
2018-05-24T21:37:52.544Z,75.83
2018-05-24T21:40:27.169Z,75.75
2018-05-24T21:42:53.799Z,76.33
2018-05-24T21:45:21.737Z,76.14
2018-05-24T21:47:48.899Z,75.73
2018-05-24T21:50:17.035Z,75.29
2018-05-24T21:52:43.599Z,75.07
2018-05-24T21:55:11.008Z,74.20
2018-05-24T21:57:39.103Z,74.09
2018-05-24T22:00:05.559Z,74.57
2018-05-24T22:02:32.745Z,74.73
2018-05-24T22:04:59.168Z,73.39
2018-05-24T22:07:25.759Z,74.28
2018-05-24T22:09:52.333Z,74.89
2018-05-24T22:12:18.772Z,74.87
2018-05-24T22:14:46.071Z,75.39
2018-05-24T22:17:13.072Z,75.59
2018-05-24T22:19:39.564Z,75.51
2018-05-24T22:22:06.039Z,75.67
2018-05-24T22:24:32.529Z,76.04
2018-05-24T22:26:59.750Z,75.86
2018-05-24T22:29:26.151Z,76.33
2018-05-24T22:31:52.557Z,76.30
2018-05-24T22:34:18.975Z,76.12
2018-05-24T22:36:46.195Z,77.23
2018-05-24T22:39:12.523Z,77.66
2018-05-24T22:41:38.920Z,78.17
2018-05-24T22:44:05.488Z,78.91
2018-05-24T22:46:32.806Z,79.90
2018-05-24T22:49:00.151Z,80.69
2018-05-24T22:51:26.492Z,82.08
2018-05-24T22:53:52.855Z,82.71
2018-05-24T22:56:19.442Z,83.28
2018-05-24T22:58:45.801Z,83.67
2018-05-24T23:01:12.152Z,84.20
2018-05-24T23:03:38.533Z,85.17
2018-05-24T23:06:05.104Z,84.35
2018-05-24T23:08:31.777Z,84.38
2018-05-24T23:10:58.202Z,85.88
2018-05-24T23:13:24.628Z,86.98
2018-05-24T23:15:51.245Z,88.38
2018-05-24T23:18:19.017Z,88.88
2018-05-24T23:20:46.199Z,89.23
2018-05-24T23:23:14.462Z,90.12
2018-05-24T23:28:14.779Z,89.93
2018-05-24T23:30:41.121Z,90.48
2018-05-24T23:33:07.926Z,90.36
2018-05-24T23:35:34.255Z,90.81
2018-05-24T23:38:00.826Z,91.86
2018-05-24T23:40:27.269Z,92.27
2018-05-24T23:42:53.699Z,92.28
2018-05-24T23:45:20.405Z,92.40
2018-05-24T23:47:47.595Z,93.15
2018-05-24T23:50:14.743Z,92.96
2018-05-24T23:52:41.171Z,92.58
2018-05-24T23:55:08.315Z,92.64
2018-05-24T23:57:34.633Z,92.30
